sensor_id;sensor_type;location;lat;lon;timestamp;temperature;humidity
6865;DHT22;3471;49.678;8.388;2023-04-06T00:01:10;5.50;99.90
6865;DHT22;3471;49.678;8.388;2023-04-06T00:03:36;5.50;99.90
6865;DHT22;3471;49.678;8.388;2023-04-06T00:06:01;5.60;99.90
6865;DHT22;3471;49.678;8.388;2023-04-06T00:08:27;5.60;99.90
6865;DHT22;3471;49.678;8.388;2023-04-06T00:10:53;5.60;99.90
6865;DHT22;3471;49.678;8.388;2023-04-06T00:13:19;5.60;99.90
6865;DHT22;3471;49.678;8.388;2023-04-06T00:15:45;5.60;99.90
6865;DHT22;3471;49.678;8.388;2023-04-06T00:18:11;5.70;99.90
6865;DHT22;3471;49.678;8.388;2023-04-06T00:20:36;5.70;99.90
6865;DHT22;3471;49.678;8.388;2023-04-06T00:23:02;5.60;99.90
6865;DHT22;3471;49.678;8.388;2023-04-06T00:25:28;5.60;99.90
6865;DHT22;3471;49.678;8.388;2023-04-06T00:27:53;5.50;99.90
6865;DHT22;3471;49.678;8.388;2023-04-06T00:30:19;5.50;99.90
6865;DHT22;3471;49.678;8.388;2023-04-06T00:32:45;5.40;99.90
6865;DHT22;3471;49.678;8.388;2023-04-06T00:35:10;5.30;99.90
6865;DHT22;3471;49.678;8.388;2023-04-06T00:37:36;5.20;99.90
6865;DHT22;3471;49.678;8.388;2023-04-06T00:40:02;5.00;99.90
6865;DHT22;3471;49.678;8.388;2023-04-06T00:42:28;4.90;99.90
6865;DHT22;3471;49.678;8.388;2023-04-06T00:44:58;4.90;99.90
6865;DHT22;3471;49.678;8.388;2023-04-06T00:47:25;4.80;99.90
6865;DHT22;3471;49.678;8.388;2023-04-06T00:49:52;4.80;99.90
6865;DHT22;3471;49.678;8.388;2023-04-06T00:52:18;4.70;99.90
6865;DHT22;3471;49.678;8.388;2023-04-06T00:54:43;4.70;99.90
6865;DHT22;3471;49.678;8.388;2023-04-06T00:57:11;4.70;99.90
6865;DHT22;3471;49.678;8.388;2023-04-06T00:59:37;4.60;99.90
6865;DHT22;3471;49.678;8.388;2023-04-06T01:02:03;4.60;99.90
6865;DHT22;3471;49.678;8.388;2023-04-06T01:04:28;4.60;99.90
6865;DHT22;3471;49.678;8.388;2023-04-06T01:06:54;4.60;99.90
6865;DHT22;3471;49.678;8.388;2023-04-06T01:09:21;4.60;99.90
6865;DHT22;3471;49.678;8.388;2023-04-06T01:11:47;4.50;99.90
6865;DHT22;3471;49.678;8.388;2023-04-06T01:14:12;4.50;99.90
6865;DHT22;3471;49.678;8.388;2023-04-06T01:16:38;4.50;99.90
6865;DHT22;3471;49.678;8.388;2023-04-06T01:19:22;4.50;99.90
6865;DHT22;3471;49.678;8.388;2023-04-06T01:21:49;4.40;99.90
6865;DHT22;3471;49.678;8.388;2023-04-06T01:24:14;4.30;99.90
6865;DHT22;3471;49.678;8.388;2023-04-06T01:26:40;4.30;99.90
6865;DHT22;3471;49.678;8.388;2023-04-06T01:29:06;4.30;99.90
6865;DHT22;3471;49.678;8.388;2023-04-06T01:31:31;4.20;99.90
6865;DHT22;3471;49.678;8.388;2023-04-06T01:33:57;4.20;99.90
6865;DHT22;3471;49.678;8.388;2023-04-06T01:36:23;4.20;99.90
6865;DHT22;3471;49.678;8.388;2023-04-06T01:38:48;4.20;99.90
6865;DHT22;3471;49.678;8.388;2023-04-06T01:41:14;4.20;99.90
6865;DHT22;3471;49.678;8.388;2023-04-06T01:43:39;4.30;99.90
6865;DHT22;3471;49.678;8.388;2023-04-06T01:46:05;4.30;99.90
6865;DHT22;3471;49.678;8.388;2023-04-06T01:48:31;4.20;99.90
6865;DHT22;3471;49.678;8.388;2023-04-06T01:50:57;4.20;99.90
6865;DHT22;3471;49.678;8.388;2023-04-06T01:53:22;4.20;99.90
6865;DHT22;3471;49.678;8.388;2023-04-06T01:55:48;4.20;99.90
6865;DHT22;3471;49.678;8.388;2023-04-06T01:58:14;4.20;99.90
6865;DHT22;3471;49.678;8.388;2023-04-06T02:00:40;4.20;99.90
6865;DHT22;3471;49.678;8.388;2023-04-06T02:03:06;4.20;99.90
6865;DHT22;3471;49.678;8.388;2023-04-06T02:05:32;4.20;99.90
6865;DHT22;3471;49.678;8.388;2023-04-06T02:08:07;4.20;99.90
6865;DHT22;3471;49.678;8.388;2023-04-06T02:10:34;4.20;99.90
6865;DHT22;3471;49.678;8.388;2023-04-06T02:13:00;4.10;99.90
6865;DHT22;3471;49.678;8.388;2023-04-06T02:15:26;4.10;99.90
6865;DHT22;3471;49.678;8.388;2023-04-06T02:17:52;4.10;99.90
6865;DHT22;3471;49.678;8.388;2023-04-06T02:20:18;4.00;99.90
6865;DHT22;3471;49.678;8.388;2023-04-06T02:22:44;4.00;99.90
6865;DHT22;3471;49.678;8.388;2023-04-06T02:25:09;3.90;99.90
6865;DHT22;3471;49.678;8.388;2023-04-06T02:27:35;3.90;99.90
6865;DHT22;3471;49.678;8.388;2023-04-06T02:30:02;3.80;99.90
6865;DHT22;3471;49.678;8.388;2023-04-06T02:32:28;3.80;99.90
6865;DHT22;3471;49.678;8.388;2023-04-06T02:34:53;3.70;99.90
6865;DHT22;3471;49.678;8.388;2023-04-06T02:37:20;3.70;99.90
6865;DHT22;3471;49.678;8.388;2023-04-06T02:39:45;3.60;99.90
6865;DHT22;3471;49.678;8.388;2023-04-06T02:42:11;3.60;99.90
6865;DHT22;3471;49.678;8.388;2023-04-06T02:44:37;3.60;99.90
6865;DHT22;3471;49.678;8.388;2023-04-06T02:47:02;3.60;99.90
6865;DHT22;3471;49.678;8.388;2023-04-06T02:49:28;3.60;99.90
6865;DHT22;3471;49.678;8.388;2023-04-06T02:51:53;3.60;99.90
6865;DHT22;3471;49.678;8.388;2023-04-06T02:54:19;3.60;99.90
6865;DHT22;3471;49.678;8.388;2023-04-06T02:56:45;3.60;99.90
6865;DHT22;3471;49.678;8.388;2023-04-06T02:59:10;3.60;99.90
6865;DHT22;3471;49.678;8.388;2023-04-06T03:01:36;3.60;99.90
6865;DHT22;3471;49.678;8.388;2023-04-06T03:04:02;3.60;99.90
6865;DHT22;3471;49.678;8.388;2023-04-06T03:06:28;3.60;99.90
6865;DHT22;3471;49.678;8.388;2023-04-06T03:08:53;3.60;99.90
6865;DHT22;3471;49.678;8.388;2023-04-06T03:11:19;3.60;99.90
6865;DHT22;3471;49.678;8.388;2023-04-06T03:13:45;3.60;99.90
6865;DHT22;3471;49.678;8.388;2023-04-06T03:16:10;3.60;99.90
6865;DHT22;3471;49.678;8.388;2023-04-06T03:18:36;3.60;99.90
6865;DHT22;3471;49.678;8.388;2023-04-06T03:21:02;3.50;99.90
6865;DHT22;3471;49.678;8.388;2023-04-06T03:23:27;3.50;99.90
6865;DHT22;3471;49.678;8.388;2023-04-06T03:25:53;3.50;99.90
6865;DHT22;3471;49.678;8.388;2023-04-06T03:28:19;3.40;99.90
6865;DHT22;3471;49.678;8.388;2023-04-06T03:30:45;3.40;99.90
6865;DHT22;3471;49.678;8.388;2023-04-06T03:33:11;3.40;99.90
6865;DHT22;3471;49.678;8.388;2023-04-06T03:35:37;3.30;99.90
6865;DHT22;3471;49.678;8.388;2023-04-06T03:38:03;3.30;99.90
6865;DHT22;3471;49.678;8.388;2023-04-06T03:40:30;3.30;99.90
6865;DHT22;3471;49.678;8.388;2023-04-06T03:42:56;3.30;99.90
6865;DHT22;3471;49.678;8.388;2023-04-06T03:45:21;3.30;99.90
6865;DHT22;3471;49.678;8.388;2023-04-06T03:47:47;3.30;99.90
6865;DHT22;3471;49.678;8.388;2023-04-06T03:50:13;3.30;99.90
6865;DHT22;3471;49.678;8.388;2023-04-06T03:52:38;3.20;99.90
6865;DHT22;3471;49.678;8.388;2023-04-06T03:55:04;3.20;99.90
6865;DHT22;3471;49.678;8.388;2023-04-06T03:57:30;3.20;99.90
6865;DHT22;3471;49.678;8.388;2023-04-06T03:59:56;3.30;99.90
6865;DHT22;3471;49.678;8.388;2023-04-06T04:02:21;3.30;99.90
6865;DHT22;3471;49.678;8.388;2023-04-06T04:04:47;3.30;99.90
6865;DHT22;3471;49.678;8.388;2023-04-06T04:07:13;3.30;99.90
6865;DHT22;3471;49.678;8.388;2023-04-06T04:09:38;3.30;99.90
6865;DHT22;3471;49.678;8.388;2023-04-06T04:12:04;3.30;99.90
6865;DHT22;3471;49.678;8.388;2023-04-06T04:14:30;3.20;99.90
6865;DHT22;3471;49.678;8.388;2023-04-06T04:16:56;3.20;99.90
6865;DHT22;3471;49.678;8.388;2023-04-06T04:19:21;3.10;99.90
6865;DHT22;3471;49.678;8.388;2023-04-06T04:21:47;3.10;99.90
6865;DHT22;3471;49.678;8.388;2023-04-06T04:24:13;3.10;99.90
6865;DHT22;3471;49.678;8.388;2023-04-06T04:26:39;3.00;99.90
6865;DHT22;3471;49.678;8.388;2023-04-06T04:29:05;3.00;99.90
6865;DHT22;3471;49.678;8.388;2023-04-06T04:31:31;3.00;99.90
6865;DHT22;3471;49.678;8.388;2023-04-06T04:33:57;3.10;99.90
6865;DHT22;3471;49.678;8.388;2023-04-06T04:36:23;3.10;99.90
6865;DHT22;3471;49.678;8.388;2023-04-06T04:38:51;3.10;99.90
6865;DHT22;3471;49.678;8.388;2023-04-06T04:41:17;3.10;99.90
6865;DHT22;3471;49.678;8.388;2023-04-06T04:43:42;3.10;99.90
6865;DHT22;3471;49.678;8.388;2023-04-06T04:46:08;3.10;99.90
6865;DHT22;3471;49.678;8.388;2023-04-06T04:48:34;3.10;99.90
6865;DHT22;3471;49.678;8.388;2023-04-06T04:51:00;3.20;99.90
6865;DHT22;3471;49.678;8.388;2023-04-06T04:53:25;3.20;99.90
6865;DHT22;3471;49.678;8.388;2023-04-06T04:55:51;3.20;99.90
6865;DHT22;3471;49.678;8.388;2023-04-06T04:58:17;3.20;99.90
6865;DHT22;3471;49.678;8.388;2023-04-06T05:00:47;3.20;99.90
6865;DHT22;3471;49.678;8.388;2023-04-06T05:03:26;3.20;99.90
6865;DHT22;3471;49.678;8.388;2023-04-06T05:05:51;3.30;99.90
6865;DHT22;3471;49.678;8.388;2023-04-06T05:08:17;3.20;99.90
6865;DHT22;3471;49.678;8.388;2023-04-06T05:10:43;3.20;99.90
6865;DHT22;3471;49.678;8.388;2023-04-06T05:13:13;3.20;99.90
6865;DHT22;3471;49.678;8.388;2023-04-06T05:15:39;3.20;99.90
6865;DHT22;3471;49.678;8.388;2023-04-06T05:18:06;3.10;99.90
6865;DHT22;3471;49.678;8.388;2023-04-06T05:20:32;3.10;99.90
6865;DHT22;3471;49.678;8.388;2023-04-06T05:22:57;3.10;99.90
6865;DHT22;3471;49.678;8.388;2023-04-06T05:25:23;3.10;99.90
6865;DHT22;3471;49.678;8.388;2023-04-06T05:27:49;3.10;99.90
6865;DHT22;3471;49.678;8.388;2023-04-06T05:30:15;3.10;99.90
6865;DHT22;3471;49.678;8.388;2023-04-06T05:32:40;3.10;99.90
6865;DHT22;3471;49.678;8.388;2023-04-06T05:35:08;3.20;99.90
6865;DHT22;3471;49.678;8.388;2023-04-06T05:37:33;3.20;99.90
6865;DHT22;3471;49.678;8.388;2023-04-06T05:39:59;3.20;99.90
6865;DHT22;3471;49.678;8.388;2023-04-06T05:42:25;3.30;99.90
6865;DHT22;3471;49.678;8.388;2023-04-06T05:44:52;3.40;99.90
6865;DHT22;3471;49.678;8.388;2023-04-06T05:47:18;3.50;99.90
6865;DHT22;3471;49.678;8.388;2023-04-06T05:49:44;3.50;99.90
6865;DHT22;3471;49.678;8.388;2023-04-06T05:52:10;3.70;99.90
6865;DHT22;3471;49.678;8.388;2023-04-06T05:54:36;3.70;99.90
6865;DHT22;3471;49.678;8.388;2023-04-06T05:57:03;3.80;99.90
6865;DHT22;3471;49.678;8.388;2023-04-06T05:59:31;3.90;99.90
6865;DHT22;3471;49.678;8.388;2023-04-06T06:01:57;4.00;99.90
6865;DHT22;3471;49.678;8.388;2023-04-06T06:04:23;4.00;99.90
6865;DHT22;3471;49.678;8.388;2023-04-06T06:06:48;4.10;99.90
6865;DHT22;3471;49.678;8.388;2023-04-06T06:09:14;4.20;99.90
6865;DHT22;3471;49.678;8.388;2023-04-06T06:11:40;4.20;99.90
6865;DHT22;3471;49.678;8.388;2023-04-06T06:14:06;4.30;99.90
6865;DHT22;3471;49.678;8.388;2023-04-06T06:16:32;4.40;99.90
6865;DHT22;3471;49.678;8.388;2023-04-06T06:18:58;4.50;99.90
6865;DHT22;3471;49.678;8.388;2023-04-06T06:21:23;4.60;99.90
6865;DHT22;3471;49.678;8.388;2023-04-06T06:23:49;4.70;99.90
6865;DHT22;3471;49.678;8.388;2023-04-06T06:26:15;4.80;99.90
6865;DHT22;3471;49.678;8.388;2023-04-06T06:28:41;4.90;99.90
6865;DHT22;3471;49.678;8.388;2023-04-06T06:31:07;4.90;99.90
6865;DHT22;3471;49.678;8.388;2023-04-06T06:33:32;5.10;99.90
6865;DHT22;3471;49.678;8.388;2023-04-06T06:35:58;5.20;99.90
6865;DHT22;3471;49.678;8.388;2023-04-06T06:38:24;5.30;99.90
6865;DHT22;3471;49.678;8.388;2023-04-06T06:40:50;5.40;99.90
6865;DHT22;3471;49.678;8.388;2023-04-06T06:43:16;5.60;99.90
6865;DHT22;3471;49.678;8.388;2023-04-06T06:45:42;5.70;99.90
6865;DHT22;3471;49.678;8.388;2023-04-06T06:48:07;5.80;99.90
6865;DHT22;3471;49.678;8.388;2023-04-06T06:50:33;5.90;99.90
6865;DHT22;3471;49.678;8.388;2023-04-06T06:52:58;6.00;99.90
6865;DHT22;3471;49.678;8.388;2023-04-06T06:55:24;6.10;99.90
6865;DHT22;3471;49.678;8.388;2023-04-06T06:57:52;6.10;99.90
6865;DHT22;3471;49.678;8.388;2023-04-06T07:00:18;6.20;99.90
6865;DHT22;3471;49.678;8.388;2023-04-06T07:02:46;6.30;99.90
6865;DHT22;3471;49.678;8.388;2023-04-06T07:05:12;6.40;99.90
6865;DHT22;3471;49.678;8.388;2023-04-06T07:07:38;6.50;99.90
6865;DHT22;3471;49.678;8.388;2023-04-06T07:10:04;6.60;99.90
6865;DHT22;3471;49.678;8.388;2023-04-06T07:12:30;6.70;99.90
6865;DHT22;3471;49.678;8.388;2023-04-06T07:14:56;6.80;99.90
6865;DHT22;3471;49.678;8.388;2023-04-06T07:17:21;6.90;99.90
6865;DHT22;3471;49.678;8.388;2023-04-06T07:19:47;7.00;99.90
6865;DHT22;3471;49.678;8.388;2023-04-06T07:22:13;7.10;99.90
6865;DHT22;3471;49.678;8.388;2023-04-06T07:24:38;7.30;99.90
6865;DHT22;3471;49.678;8.388;2023-04-06T07:27:04;7.40;99.90
6865;DHT22;3471;49.678;8.388;2023-04-06T07:29:30;7.50;99.90
6865;DHT22;3471;49.678;8.388;2023-04-06T07:31:56;7.60;99.90
6865;DHT22;3471;49.678;8.388;2023-04-06T07:34:22;7.70;99.90
6865;DHT22;3471;49.678;8.388;2023-04-06T07:36:48;7.70;99.90
6865;DHT22;3471;49.678;8.388;2023-04-06T07:39:13;7.80;99.90
6865;DHT22;3471;49.678;8.388;2023-04-06T07:41:39;7.90;99.90
6865;DHT22;3471;49.678;8.388;2023-04-06T07:44:05;8.00;99.90
6865;DHT22;3471;49.678;8.388;2023-04-06T07:46:31;8.20;99.90
6865;DHT22;3471;49.678;8.388;2023-04-06T07:48:57;8.20;99.90
6865;DHT22;3471;49.678;8.388;2023-04-06T07:51:23;8.30;99.90
6865;DHT22;3471;49.678;8.388;2023-04-06T07:53:50;8.40;99.90
6865;DHT22;3471;49.678;8.388;2023-04-06T07:56:15;8.40;99.90
6865;DHT22;3471;49.678;8.388;2023-04-06T07:58:41;8.50;99.90
6865;DHT22;3471;49.678;8.388;2023-04-06T08:01:07;8.60;99.90
6865;DHT22;3471;49.678;8.388;2023-04-06T08:03:36;8.80;99.90
6865;DHT22;3471;49.678;8.388;2023-04-06T08:06:02;8.90;99.90
6865;DHT22;3471;49.678;8.388;2023-04-06T08:08:28;9.00;99.90
6865;DHT22;3471;49.678;8.388;2023-04-06T08:10:54;9.20;99.90
6865;DHT22;3471;49.678;8.388;2023-04-06T08:13:20;9.30;99.90
6865;DHT22;3471;49.678;8.388;2023-04-06T08:15:46;9.40;99.90
6865;DHT22;3471;49.678;8.388;2023-04-06T08:18:12;9.50;99.90
6865;DHT22;3471;49.678;8.388;2023-04-06T08:20:39;9.50;99.90
6865;DHT22;3471;49.678;8.388;2023-04-06T08:23:04;9.70;99.90
6865;DHT22;3471;49.678;8.388;2023-04-06T08:25:33;9.80;99.90
6865;DHT22;3471;49.678;8.388;2023-04-06T08:27:59;10.00;99.90
6865;DHT22;3471;49.678;8.388;2023-04-06T08:30:24;10.20;99.90
6865;DHT22;3471;49.678;8.388;2023-04-06T08:32:50;10.30;99.90
6865;DHT22;3471;49.678;8.388;2023-04-06T08:35:16;10.50;99.90
6865;DHT22;3471;49.678;8.388;2023-04-06T08:37:41;10.60;99.90
6865;DHT22;3471;49.678;8.388;2023-04-06T08:40:07;10.70;99.90
6865;DHT22;3471;49.678;8.388;2023-04-06T08:42:40;10.70;99.90
6865;DHT22;3471;49.678;8.388;2023-04-06T08:45:09;10.70;99.90
6865;DHT22;3471;49.678;8.388;2023-04-06T08:47:36;10.80;99.90
6865;DHT22;3471;49.678;8.388;2023-04-06T08:50:04;10.80;99.90
6865;DHT22;3471;49.678;8.388;2023-04-06T08:52:31;10.90;99.90
6865;DHT22;3471;49.678;8.388;2023-04-06T08:54:57;11.00;99.90
6865;DHT22;3471;49.678;8.388;2023-04-06T08:57:24;11.10;99.60
6865;DHT22;3471;49.678;8.388;2023-04-06T08:59:50;11.20;99.90
6865;DHT22;3471;49.678;8.388;2023-04-06T09:02:18;11.40;99.70
6865;DHT22;3471;49.678;8.388;2023-04-06T09:04:47;11.50;99.60
6865;DHT22;3471;49.678;8.388;2023-04-06T09:07:14;11.70;99.90
6865;DHT22;3471;49.678;8.388;2023-04-06T09:09:40;11.80;99.90
6865;DHT22;3471;49.678;8.388;2023-04-06T09:12:22;11.90;99.90
6865;DHT22;3471;49.678;8.388;2023-04-06T09:14:48;12.10;99.90
6865;DHT22;3471;49.678;8.388;2023-04-06T09:17:21;12.20;99.90
6865;DHT22;3471;49.678;8.388;2023-04-06T09:19:47;12.50;99.90
6865;DHT22;3471;49.678;8.388;2023-04-06T09:22:13;12.60;98.30
6865;DHT22;3471;49.678;8.388;2023-04-06T09:24:44;12.80;97.50
6865;DHT22;3471;49.678;8.388;2023-04-06T09:27:10;12.80;97.40
6865;DHT22;3471;49.678;8.388;2023-04-06T09:29:36;12.90;99.60
6865;DHT22;3471;49.678;8.388;2023-04-06T09:32:09;13.00;99.90
6865;DHT22;3471;49.678;8.388;2023-04-06T09:34:41;13.20;99.90
6865;DHT22;3471;49.678;8.388;2023-04-06T09:37:18;13.30;99.70
6865;DHT22;3471;49.678;8.388;2023-04-06T09:39:44;13.40;96.90
6865;DHT22;3471;49.678;8.388;2023-04-06T09:42:22;13.50;96.50
6865;DHT22;3471;49.678;8.388;2023-04-06T09:44:48;13.50;96.60
6865;DHT22;3471;49.678;8.388;2023-04-06T09:47:15;13.60;97.70
6865;DHT22;3471;49.678;8.388;2023-04-06T09:49:42;13.70;98.50
6865;DHT22;3471;49.678;8.388;2023-04-06T09:52:11;13.70;98.30
6865;DHT22;3471;49.678;8.388;2023-04-06T09:54:38;13.80;98.40
6865;DHT22;3471;49.678;8.388;2023-04-06T10:00:07;13.90;95.80
6865;DHT22;3471;49.678;8.388;2023-04-06T10:05:42;14.00;97.30
6865;DHT22;3471;49.678;8.388;2023-04-06T10:08:09;14.20;98.80
6865;DHT22;3471;49.678;8.388;2023-04-06T10:10:36;14.30;97.00
6865;DHT22;3471;49.678;8.388;2023-04-06T10:13:03;14.40;96.20
6865;DHT22;3471;49.678;8.388;2023-04-06T10:15:30;14.50;95.90
6865;DHT22;3471;49.678;8.388;2023-04-06T10:17:59;14.60;95.10
6865;DHT22;3471;49.678;8.388;2023-04-06T10:25:32;15.00;95.60
6865;DHT22;3471;49.678;8.388;2023-04-06T10:28:09;15.30;97.80
6865;DHT22;3471;49.678;8.388;2023-04-06T10:30:42;15.50;93.90
6865;DHT22;3471;49.678;8.388;2023-04-06T10:33:15;15.60;92.60
6865;DHT22;3471;49.678;8.388;2023-04-06T10:35:41;15.70;92.00
6865;DHT22;3471;49.678;8.388;2023-04-06T10:38:07;15.80;94.80
6865;DHT22;3471;49.678;8.388;2023-04-06T10:40:36;15.80;90.70
6865;DHT22;3471;49.678;8.388;2023-04-06T10:43:13;15.90;91.30
6865;DHT22;3471;49.678;8.388;2023-04-06T10:45:39;16.10;93.90
6865;DHT22;3471;49.678;8.388;2023-04-06T10:48:16;16.30;94.90
6865;DHT22;3471;49.678;8.388;2023-04-06T10:50:47;16.60;91.60
6865;DHT22;3471;49.678;8.388;2023-04-06T10:53:22;16.80;91.60
6865;DHT22;3471;49.678;8.388;2023-04-06T10:55:50;17.00;89.60
6865;DHT22;3471;49.678;8.388;2023-04-06T10:58:16;17.10;91.00
6865;DHT22;3471;49.678;8.388;2023-04-06T11:00:45;17.20;92.20
6865;DHT22;3471;49.678;8.388;2023-04-06T11:03:11;17.40;92.70
6865;DHT22;3471;49.678;8.388;2023-04-06T11:05:37;17.70;89.20
6865;DHT22;3471;49.678;8.388;2023-04-06T11:08:03;17.80;88.50
6865;DHT22;3471;49.678;8.388;2023-04-06T11:10:29;17.80;83.30
6865;DHT22;3471;49.678;8.388;2023-04-06T11:12:56;18.00;87.50
6865;DHT22;3471;49.678;8.388;2023-04-06T11:15:22;18.10;88.40
6865;DHT22;3471;49.678;8.388;2023-04-06T11:17:48;18.10;87.40
6865;DHT22;3471;49.678;8.388;2023-04-06T11:20:14;18.30;84.80
6865;DHT22;3471;49.678;8.388;2023-04-06T11:22:51;18.30;86.20
6865;DHT22;3471;49.678;8.388;2023-04-06T11:25:17;18.30;78.70
6865;DHT22;3471;49.678;8.388;2023-04-06T11:27:43;18.30;76.90
6865;DHT22;3471;49.678;8.388;2023-04-06T11:30:10;18.30;85.50
6865;DHT22;3471;49.678;8.388;2023-04-06T11:32:43;18.40;81.20
6865;DHT22;3471;49.678;8.388;2023-04-06T11:35:22;18.50;83.80
6865;DHT22;3471;49.678;8.388;2023-04-06T11:37:50;18.40;77.80
6865;DHT22;3471;49.678;8.388;2023-04-06T11:40:20;18.50;77.50
6865;DHT22;3471;49.678;8.388;2023-04-06T11:42:52;18.60;78.00
6865;DHT22;3471;49.678;8.388;2023-04-06T11:45:18;18.70;77.20
6865;DHT22;3471;49.678;8.388;2023-04-06T11:47:44;18.70;77.20
6865;DHT22;3471;49.678;8.388;2023-04-06T11:50:12;18.80;76.20
6865;DHT22;3471;49.678;8.388;2023-04-06T11:52:39;18.80;73.70
6865;DHT22;3471;49.678;8.388;2023-04-06T11:55:13;18.70;75.70
6865;DHT22;3471;49.678;8.388;2023-04-06T11:57:39;18.50;77.90
6865;DHT22;3471;49.678;8.388;2023-04-06T12:00:06;18.40;77.10
6865;DHT22;3471;49.678;8.388;2023-04-06T12:02:34;18.30;78.20
6865;DHT22;3471;49.678;8.388;2023-04-06T12:04:59;18.40;73.80
6865;DHT22;3471;49.678;8.388;2023-04-06T12:07:25;18.40;70.30
6865;DHT22;3471;49.678;8.388;2023-04-06T12:09:51;18.40;73.40
6865;DHT22;3471;49.678;8.388;2023-04-06T12:12:16;18.50;73.20
6865;DHT22;3471;49.678;8.388;2023-04-06T12:14:42;18.60;79.30
6865;DHT22;3471;49.678;8.388;2023-04-06T12:17:07;18.60;77.90
6865;DHT22;3471;49.678;8.388;2023-04-06T12:19:33;18.70;71.80
6865;DHT22;3471;49.678;8.388;2023-04-06T12:21:59;18.60;76.70
6865;DHT22;3471;49.678;8.388;2023-04-06T12:24:24;18.50;69.10
6865;DHT22;3471;49.678;8.388;2023-04-06T12:26:50;18.50;75.60
6865;DHT22;3471;49.678;8.388;2023-04-06T12:29:16;18.30;74.50
6865;DHT22;3471;49.678;8.388;2023-04-06T12:31:41;18.40;74.80
6865;DHT22;3471;49.678;8.388;2023-04-06T12:34:09;18.50;74.90
6865;DHT22;3471;49.678;8.388;2023-04-06T12:36:36;18.60;78.70
6865;DHT22;3471;49.678;8.388;2023-04-06T12:39:01;18.90;73.30
6865;DHT22;3471;49.678;8.388;2023-04-06T12:41:28;19.00;75.00
6865;DHT22;3471;49.678;8.388;2023-04-06T12:43:55;19.10;71.30
6865;DHT22;3471;49.678;8.388;2023-04-06T12:46:22;19.20;75.20
6865;DHT22;3471;49.678;8.388;2023-04-06T12:48:48;19.10;68.10
6865;DHT22;3471;49.678;8.388;2023-04-06T12:51:14;19.10;71.30
6865;DHT22;3471;49.678;8.388;2023-04-06T12:53:40;19.00;68.80
6865;DHT22;3471;49.678;8.388;2023-04-06T12:56:15;18.80;69.30
6865;DHT22;3471;49.678;8.388;2023-04-06T12:58:42;18.70;71.70
6865;DHT22;3471;49.678;8.388;2023-04-06T13:01:08;18.50;71.30
6865;DHT22;3471;49.678;8.388;2023-04-06T13:03:34;18.30;70.80
6865;DHT22;3471;49.678;8.388;2023-04-06T13:06:00;18.20;74.60
6865;DHT22;3471;49.678;8.388;2023-04-06T13:08:27;18.20;75.60
6865;DHT22;3471;49.678;8.388;2023-04-06T13:10:53;18.10;75.50
6865;DHT22;3471;49.678;8.388;2023-04-06T13:13:29;18.10;75.10
6865;DHT22;3471;49.678;8.388;2023-04-06T13:16:02;18.00;71.40
6865;DHT22;3471;49.678;8.388;2023-04-06T13:18:29;18.10;72.30
6865;DHT22;3471;49.678;8.388;2023-04-06T13:20:56;18.20;71.40
6865;DHT22;3471;49.678;8.388;2023-04-06T13:23:23;18.40;68.80
6865;DHT22;3471;49.678;8.388;2023-04-06T13:25:57;18.80;70.60
6865;DHT22;3471;49.678;8.388;2023-04-06T13:28:23;19.10;68.60
6865;DHT22;3471;49.678;8.388;2023-04-06T13:30:49;19.50;70.60
6865;DHT22;3471;49.678;8.388;2023-04-06T13:33:15;19.70;68.00
6865;DHT22;3471;49.678;8.388;2023-04-06T13:35:44;19.90;67.00
6865;DHT22;3471;49.678;8.388;2023-04-06T13:38:11;20.00;69.60
6865;DHT22;3471;49.678;8.388;2023-04-06T13:40:39;20.10;69.30
6865;DHT22;3471;49.678;8.388;2023-04-06T13:43:05;20.10;66.90
6865;DHT22;3471;49.678;8.388;2023-04-06T13:45:31;19.90;63.70
6865;DHT22;3471;49.678;8.388;2023-04-06T13:47:57;19.80;62.50
6865;DHT22;3471;49.678;8.388;2023-04-06T13:50:22;19.60;62.80
6865;DHT22;3471;49.678;8.388;2023-04-06T13:52:50;19.40;62.50
6865;DHT22;3471;49.678;8.388;2023-04-06T13:55:16;19.30;64.60
6865;DHT22;3471;49.678;8.388;2023-04-06T13:57:41;19.10;67.10
6865;DHT22;3471;49.678;8.388;2023-04-06T14:00:07;19.00;66.20
6865;DHT22;3471;49.678;8.388;2023-04-06T14:02:34;18.90;65.30
6865;DHT22;3471;49.678;8.388;2023-04-06T14:05:00;18.70;66.40
6865;DHT22;3471;49.678;8.388;2023-04-06T14:07:25;18.60;64.40
6865;DHT22;3471;49.678;8.388;2023-04-06T14:09:51;18.30;66.50
6865;DHT22;3471;49.678;8.388;2023-04-06T14:12:17;18.20;71.30
6865;DHT22;3471;49.678;8.388;2023-04-06T14:14:42;18.10;69.00
6865;DHT22;3471;49.678;8.388;2023-04-06T14:17:08;18.10;70.60
6865;DHT22;3471;49.678;8.388;2023-04-06T14:19:33;18.00;67.10
6865;DHT22;3471;49.678;8.388;2023-04-06T14:21:59;17.90;65.80
6865;DHT22;3471;49.678;8.388;2023-04-06T14:24:25;17.70;63.80
6865;DHT22;3471;49.678;8.388;2023-04-06T14:26:51;17.50;62.90
6865;DHT22;3471;49.678;8.388;2023-04-06T14:29:17;17.30;64.50
6865;DHT22;3471;49.678;8.388;2023-04-06T14:31:44;17.10;65.60
6865;DHT22;3471;49.678;8.388;2023-04-06T14:34:10;17.00;64.30
6865;DHT22;3471;49.678;8.388;2023-04-06T14:36:36;16.90;67.60
6865;DHT22;3471;49.678;8.388;2023-04-06T14:39:04;16.90;65.10
6865;DHT22;3471;49.678;8.388;2023-04-06T14:41:31;16.80;67.00
6865;DHT22;3471;49.678;8.388;2023-04-06T14:43:57;16.70;69.80
6865;DHT22;3471;49.678;8.388;2023-04-06T14:46:23;16.70;68.00
6865;DHT22;3471;49.678;8.388;2023-04-06T14:48:49;16.60;66.80
6865;DHT22;3471;49.678;8.388;2023-04-06T14:51:15;16.60;70.50
6865;DHT22;3471;49.678;8.388;2023-04-06T14:53:40;16.50;67.10
6865;DHT22;3471;49.678;8.388;2023-04-06T14:56:06;16.30;65.70
6865;DHT22;3471;49.678;8.388;2023-04-06T14:58:34;16.10;72.40
6865;DHT22;3471;49.678;8.388;2023-04-06T15:01:01;16.00;71.10
6865;DHT22;3471;49.678;8.388;2023-04-06T15:03:27;15.90;67.70
6865;DHT22;3471;49.678;8.388;2023-04-06T15:05:54;15.70;67.60
6865;DHT22;3471;49.678;8.388;2023-04-06T15:08:20;15.50;66.60
6865;DHT22;3471;49.678;8.388;2023-04-06T15:10:47;15.40;66.30
6865;DHT22;3471;49.678;8.388;2023-04-06T15:13:12;15.30;65.30
6865;DHT22;3471;49.678;8.388;2023-04-06T15:15:38;15.30;74.50
6865;DHT22;3471;49.678;8.388;2023-04-06T15:18:04;15.30;69.90
6865;DHT22;3471;49.678;8.388;2023-04-06T15:20:30;15.30;69.30
6865;DHT22;3471;49.678;8.388;2023-04-06T15:22:56;15.30;68.20
6865;DHT22;3471;49.678;8.388;2023-04-06T15:25:21;15.20;68.10
6865;DHT22;3471;49.678;8.388;2023-04-06T15:27:47;15.10;69.50
6865;DHT22;3471;49.678;8.388;2023-04-06T15:30:13;14.90;67.30
6865;DHT22;3471;49.678;8.388;2023-04-06T15:32:38;14.70;69.30
6865;DHT22;3471;49.678;8.388;2023-04-06T15:35:11;14.50;68.60
6865;DHT22;3471;49.678;8.388;2023-04-06T15:37:37;14.40;70.00
6865;DHT22;3471;49.678;8.388;2023-04-06T15:40:03;14.20;70.40
6865;DHT22;3471;49.678;8.388;2023-04-06T15:42:29;14.20;71.20
6865;DHT22;3471;49.678;8.388;2023-04-06T15:44:54;14.10;71.80
6865;DHT22;3471;49.678;8.388;2023-04-06T15:47:20;14.00;72.80
6865;DHT22;3471;49.678;8.388;2023-04-06T15:49:46;13.90;72.20
6865;DHT22;3471;49.678;8.388;2023-04-06T15:52:11;13.80;71.60
6865;DHT22;3471;49.678;8.388;2023-04-06T15:54:37;13.80;71.90
6865;DHT22;3471;49.678;8.388;2023-04-06T15:57:06;13.70;73.20
6865;DHT22;3471;49.678;8.388;2023-04-06T15:59:32;13.70;76.00
6865;DHT22;3471;49.678;8.388;2023-04-06T16:01:57;13.80;75.60
6865;DHT22;3471;49.678;8.388;2023-04-06T16:04:24;13.80;75.40
6865;DHT22;3471;49.678;8.388;2023-04-06T16:06:50;13.70;75.30
6865;DHT22;3471;49.678;8.388;2023-04-06T16:09:15;13.70;76.80
6865;DHT22;3471;49.678;8.388;2023-04-06T16:11:41;13.60;76.30
6865;DHT22;3471;49.678;8.388;2023-04-06T16:14:07;13.60;76.90
6865;DHT22;3471;49.678;8.388;2023-04-06T16:16:33;13.60;75.60